createdAt,value
2023-05-21T00:01:45.619Z,101408.25
2023-05-21T00:04:13.158Z,101409.09
2023-05-21T00:06:40.217Z,101410.81
2023-05-21T00:09:07.533Z,101410.63
2023-05-21T00:11:34.728Z,101400.34
2023-05-21T00:14:01.988Z,101401.09
2023-05-21T00:16:29.091Z,101400.84
2023-05-21T00:18:58.075Z,101384.75
2023-05-21T00:21:26.125Z,101377.53
2023-05-21T00:23:57.065Z,101396.44
2023-05-21T00:26:24.186Z,101395.06
2023-05-21T00:28:54.587Z,101378.44
2023-05-21T00:31:21.750Z,101380.25
2023-05-21T00:33:48.799Z,101382.22
2023-05-21T00:36:15.879Z,101364.13
2023-05-21T00:38:44.154Z,101384.38
2023-05-21T00:41:11.680Z,101369.47
2023-05-21T00:43:42.127Z,101382.84
2023-05-21T00:46:13.914Z,101364.25
2023-05-21T00:48:40.988Z,101382.25
2023-05-21T00:51:08.000Z,101373.78
2023-05-21T00:53:35.658Z,101375.34
2023-05-21T00:56:03.710Z,101352.59
2023-05-21T00:58:33.599Z,101360.69
2023-05-21T01:01:07.011Z,101371.13
2023-05-21T01:03:38.752Z,101351.94
2023-05-21T01:06:08.386Z,101371.00
2023-05-21T01:08:37.605Z,101352.06
2023-05-21T01:11:06.591Z,101354.78
2023-05-21T01:13:37.394Z,101367.50
2023-05-21T01:16:06.746Z,101357.53
2023-05-21T01:18:37.760Z,101344.50
2023-05-21T01:21:07.482Z,101368.34
2023-05-21T01:23:34.805Z,101345.69
2023-05-21T01:26:01.964Z,101358.28
2023-05-21T01:28:29.776Z,101362.63
2023-05-21T01:31:03.139Z,101343.19
2023-05-21T01:33:39.035Z,101337.19
2023-05-21T01:36:24.359Z,101357.81
2023-05-21T01:39:18.456Z,101357.59
2023-05-21T01:41:46.274Z,101359.56
2023-05-21T01:44:15.038Z,101349.25
2023-05-21T01:46:42.050Z,101362.53
2023-05-21T01:49:09.299Z,101356.16
2023-05-21T01:51:37.098Z,101362.28
2023-05-21T01:54:04.072Z,101355.03
2023-05-21T01:56:33.748Z,101352.56
2023-05-21T01:59:00.741Z,101356.75
2023-05-21T02:01:30.181Z,101356.91
2023-05-21T02:03:58.143Z,101335.00
2023-05-21T02:06:25.987Z,101349.00
2023-05-21T02:08:52.941Z,101327.13
2023-05-21T02:11:20.019Z,101342.75
2023-05-21T02:13:47.065Z,101340.88
2023-05-21T02:16:15.810Z,101344.72
2023-05-21T02:18:43.544Z,101333.50
2023-05-21T02:21:14.031Z,101341.34
2023-05-21T02:23:42.554Z,101324.47
2023-05-21T02:26:09.564Z,101338.13
2023-05-21T02:28:36.606Z,101336.88
2023-05-21T02:31:03.993Z,101333.28
2023-05-21T02:33:30.994Z,101323.03
2023-05-21T02:35:58.022Z,101330.16
2023-05-21T02:38:25.794Z,101337.63
2023-05-21T02:40:53.112Z,101326.78
2023-05-21T02:43:20.207Z,101333.19
2023-05-21T02:45:47.653Z,101325.44
2023-05-21T02:48:14.993Z,101322.00
2023-05-21T02:50:42.488Z,101305.00
2023-05-21T02:53:09.559Z,101318.09
2023-05-21T02:55:36.730Z,101317.88
2023-05-21T02:58:03.949Z,101310.84
2023-05-21T03:00:31.131Z,101286.78
2023-05-21T03:02:59.993Z,101308.31
2023-05-21T03:05:27.495Z,101309.34
2023-05-21T03:07:54.585Z,101312.41
2023-05-21T03:10:21.872Z,101309.03
2023-05-21T03:12:51.016Z,101308.06
2023-05-21T03:15:18.123Z,101300.06
2023-05-21T03:17:45.192Z,101307.53
2023-05-21T03:20:18.625Z,101315.03
2023-05-21T03:22:46.440Z,101310.47
2023-05-21T03:25:13.660Z,101309.34
2023-05-21T03:27:41.033Z,101320.69
2023-05-21T03:30:20.043Z,101315.25
2023-05-21T03:33:07.363Z,101310.28
2023-05-21T03:35:34.905Z,101304.81
2023-05-21T03:38:02.052Z,101311.91
2023-05-21T03:40:29.108Z,101308.97
2023-05-21T03:42:56.110Z,101298.16
2023-05-21T03:45:23.139Z,101298.16
2023-05-21T03:48:25.214Z,101311.09
2023-05-21T03:50:52.373Z,101307.41
2023-05-21T03:53:19.419Z,101300.16
2023-05-21T03:55:47.191Z,101308.16
2023-05-21T03:58:14.122Z,101313.09
2023-05-21T04:00:41.184Z,101318.75
2023-05-21T04:03:08.312Z,101296.47
2023-05-21T04:05:35.582Z,101300.13
2023-05-21T04:08:02.712Z,101312.78
2023-05-21T04:10:29.803Z,101318.38
2023-05-21T04:12:56.743Z,101298.09
2023-05-21T04:15:24.597Z,101324.91
2023-05-21T04:17:52.403Z,101318.16
2023-05-21T04:20:19.479Z,101320.25
2023-05-21T04:22:46.580Z,101308.19
2023-05-21T04:25:14.176Z,101310.03
2023-05-21T04:27:42.686Z,101319.41
2023-05-21T04:30:11.171Z,101304.59
2023-05-21T04:32:39.336Z,101324.31
2023-05-21T04:35:08.360Z,101323.69
2023-05-21T04:37:36.247Z,101323.53
2023-05-21T04:40:04.257Z,101331.19
2023-05-21T04:42:32.916Z,101324.53
2023-05-21T04:45:00.215Z,101331.19
2023-05-21T04:47:30.470Z,101311.63
2023-05-21T04:49:59.413Z,101334.53
2023-05-21T04:52:27.971Z,101315.34
2023-05-21T04:54:55.010Z,101316.19
2023-05-21T04:57:24.616Z,101325.31
2023-05-21T04:59:52.623Z,101322.09
2023-05-21T05:02:19.639Z,101324.66
2023-05-21T05:04:46.593Z,101321.13
2023-05-21T05:07:13.786Z,101310.91
2023-05-21T05:09:40.871Z,101311.13
2023-05-21T05:12:08.692Z,101317.53
2023-05-21T05:14:36.057Z,101309.16
2023-05-21T05:17:03.307Z,101315.28
2023-05-21T05:19:31.963Z,101308.00
2023-05-21T05:21:59.138Z,101300.50
2023-05-21T05:24:26.181Z,101298.75
2023-05-21T05:26:53.249Z,101296.03
2023-05-21T05:29:20.501Z,101269.81
2023-05-21T05:31:48.021Z,101296.06
2023-05-21T05:34:15.871Z,101296.88
2023-05-21T05:36:42.798Z,101298.53
2023-05-21T05:39:10.273Z,101279.47
2023-05-21T05:41:38.158Z,101298.84
2023-05-21T05:44:05.966Z,101301.44
2023-05-21T05:46:36.497Z,101293.34
2023-05-21T05:49:03.701Z,101295.81
2023-05-21T05:51:30.750Z,101287.91
2023-05-21T05:53:58.124Z,101290.72
2023-05-21T05:56:25.136Z,101292.28
2023-05-21T05:58:52.477Z,101288.00
2023-05-21T06:01:19.615Z,101288.59
2023-05-21T06:03:47.419Z,101275.44
2023-05-21T06:06:17.261Z,101281.50
2023-05-21T06:08:44.865Z,101284.09
2023-05-21T06:11:12.694Z,101281.00
2023-05-21T06:13:40.030Z,101279.13
2023-05-21T06:16:09.924Z,101288.03
2023-05-21T06:18:37.570Z,101285.72
2023-05-21T06:21:04.873Z,101280.06
2023-05-21T06:23:32.708Z,101287.41
2023-05-21T06:26:00.116Z,101286.22
2023-05-21T06:28:27.410Z,101290.31
2023-05-21T06:30:55.011Z,101293.69
2023-05-21T06:33:22.075Z,101293.13
2023-05-21T06:35:49.178Z,101278.09
2023-05-21T06:38:16.161Z,101286.31
2023-05-21T06:40:44.600Z,101277.63
2023-05-21T06:43:14.810Z,101273.00
2023-05-21T06:46:01.567Z,101277.88
2023-05-21T06:48:37.714Z,101284.06
2023-05-21T06:51:04.857Z,101284.34
2023-05-21T06:53:31.968Z,101285.81
2023-05-21T06:55:58.908Z,101263.50
2023-05-21T06:58:55.511Z,101255.47
2023-05-21T07:01:23.610Z,101265.16
2023-05-21T07:03:50.707Z,101240.97
2023-05-21T07:06:18.411Z,101283.03
2023-05-21T07:08:46.316Z,101275.16
2023-05-21T07:11:13.645Z,101243.38
2023-05-21T07:13:41.110Z,101277.88
2023-05-21T07:16:08.403Z,101252.91
2023-05-21T07:18:37.674Z,101281.84
2023-05-21T07:21:04.674Z,101291.06
2023-05-21T07:23:31.678Z,101272.31
2023-05-21T07:25:58.724Z,101276.97
2023-05-21T07:28:25.774Z,101270.81
2023-05-21T07:30:52.956Z,101260.72
2023-05-21T07:33:27.881Z,101256.84
2023-05-21T07:35:55.069Z,101256.50
2023-05-21T07:38:22.030Z,101249.22
2023-05-21T07:40:49.127Z,101279.31
2023-05-21T07:43:16.197Z,101270.91
2023-05-21T07:45:43.226Z,101254.84
2023-05-21T07:48:10.266Z,101252.13
2023-05-21T07:50:43.572Z,101260.00
2023-05-21T07:53:10.731Z,101263.44
2023-05-21T07:55:38.401Z,101240.66
2023-05-21T07:58:05.759Z,101245.00
2023-05-21T08:00:44.922Z,101262.88
2023-05-21T08:03:12.514Z,101249.13
2023-05-21T08:05:39.731Z,101257.88
2023-05-21T08:08:06.759Z,101259.63
2023-05-21T08:10:34.132Z,101259.47
2023-05-21T08:13:01.405Z,101245.28
2023-05-21T08:15:28.357Z,101249.63
2023-05-21T08:17:55.502Z,101252.03
2023-05-21T08:20:23.020Z,101255.28
2023-05-21T08:22:50.711Z,101254.09
2023-05-21T08:25:17.721Z,101262.06
2023-05-21T08:27:44.735Z,101253.59
2023-05-21T08:30:12.013Z,101256.88
2023-05-21T08:32:39.164Z,101250.06
2023-05-21T08:35:07.324Z,101253.47
2023-05-21T08:37:45.780Z,101246.78
2023-05-21T08:40:41.526Z,101243.78
2023-05-21T08:43:13.785Z,101245.97
2023-05-21T08:45:54.803Z,101245.09
2023-05-21T08:48:24.669Z,101247.34
2023-05-21T08:50:53.637Z,101252.34
2023-05-21T08:53:29.024Z,101253.94
2023-05-21T08:55:57.674Z,101231.31
2023-05-21T08:58:33.771Z,101231.78
2023-05-21T09:01:01.379Z,101238.47
2023-05-21T09:03:29.760Z,101221.56
2023-05-21T09:05:57.522Z,101230.84
2023-05-21T09:08:36.565Z,101243.41
2023-05-21T09:11:07.727Z,101232.50
2023-05-21T09:13:41.919Z,101246.22
2023-05-21T09:16:14.522Z,101234.03
2023-05-21T09:18:42.125Z,101249.66
2023-05-21T09:21:29.128Z,101252.63
2023-05-21T09:24:02.003Z,101258.28
2023-05-21T09:26:29.862Z,101246.38
2023-05-21T09:29:01.561Z,101254.03
2023-05-21T09:31:29.988Z,101249.47
2023-05-21T09:33:57.223Z,101241.88
2023-05-21T09:36:25.912Z,101231.78
2023-05-21T09:38:53.950Z,101248.69
2023-05-21T09:41:22.317Z,101259.19
2023-05-21T09:43:49.766Z,101240.88
2023-05-21T09:46:23.587Z,101232.56
2023-05-21T09:48:50.781Z,101242.16
2023-05-21T09:51:21.837Z,101240.69
2023-05-21T09:53:53.004Z,101230.94
2023-05-21T09:56:25.021Z,101233.03
2023-05-21T09:58:57.241Z,101236.44
2023-05-21T10:01:25.172Z,101230.72
2023-05-21T10:03:57.795Z,101228.91
2023-05-21T10:06:28.288Z,101226.94
2023-05-21T10:08:57.411Z,101228.47
2023-05-21T10:11:27.247Z,101224.69
2023-05-21T10:14:22.580Z,101217.41
2023-05-21T10:16:50.360Z,101213.19
2023-05-21T10:19:18.056Z,101214.50
2023-05-21T10:21:46.372Z,101210.97
2023-05-21T10:24:16.661Z,101214.38
2023-05-21T10:26:44.939Z,101209.03
2023-05-21T10:29:15.632Z,101176.88
2023-05-21T10:31:49.781Z,101209.19
2023-05-21T10:34:17.611Z,101198.56
2023-05-21T10:36:45.169Z,101200.75
2023-05-21T10:39:13.381Z,101196.84
2023-05-21T10:42:00.341Z,101184.44
2023-05-21T10:45:04.244Z,101191.31
2023-05-21T10:47:54.485Z,101184.44
2023-05-21T10:50:29.889Z,101183.81
2023-05-21T10:53:18.124Z,101182.34
2023-05-21T10:56:22.276Z,101167.03
2023-05-21T10:59:21.741Z,101183.53
2023-05-21T11:01:53.314Z,101179.78
2023-05-21T11:04:41.919Z,101179.19
2023-05-21T11:07:09.275Z,101169.81
2023-05-21T11:09:36.289Z,101175.38
2023-05-21T11:12:04.698Z,101168.69
2023-05-21T11:14:40.714Z,101178.28
2023-05-21T11:17:16.937Z,101174.91
2023-05-21T11:19:50.876Z,101163.72
2023-05-21T11:22:27.459Z,101161.91
2023-05-21T11:24:56.401Z,101139.34
2023-05-21T11:27:39.878Z,101163.63
2023-05-21T11:30:16.330Z,101149.25
2023-05-21T11:33:07.955Z,101149.88
2023-05-21T11:35:50.141Z,101158.06
2023-05-21T11:38:18.168Z,101151.25
2023-05-21T11:40:55.489Z,101138.56
2023-05-21T11:43:22.754Z,101138.75
2023-05-21T11:45:53.152Z,101136.19
2023-05-21T11:48:27.102Z,101130.22
2023-05-21T11:50:54.957Z,101140.38
2023-05-21T11:53:22.094Z,101129.78
2023-05-21T11:55:50.762Z,101133.84
2023-05-21T11:58:19.690Z,101138.19
2023-05-21T12:00:51.071Z,101119.34
2023-05-21T12:03:18.702Z,101129.53
2023-05-21T12:05:49.680Z,101125.47
2023-05-21T12:08:25.956Z,101129.28
2023-05-21T12:11:00.007Z,101118.34
2023-05-21T12:13:28.284Z,101119.13
2023-05-21T12:15:55.344Z,101127.06
2023-05-21T12:18:22.532Z,101120.41
2023-05-21T12:20:51.984Z,101120.31
2023-05-21T12:23:25.365Z,101120.13
2023-05-21T12:25:53.831Z,101119.81
2023-05-21T12:28:24.766Z,101113.19
2023-05-21T12:30:53.416Z,101106.59
2023-05-21T12:33:21.638Z,101112.84
2023-05-21T12:35:50.540Z,101115.59
2023-05-21T12:38:18.177Z,101093.09
2023-05-21T12:40:45.596Z,101107.84
2023-05-21T12:43:12.969Z,101102.53
2023-05-21T12:45:40.061Z,101109.47
2023-05-21T12:48:07.257Z,101101.56
2023-05-21T12:50:35.869Z,101105.59
2023-05-21T12:53:03.230Z,101097.16
2023-05-21T12:55:31.678Z,101106.91
2023-05-21T12:58:08.073Z,101101.31
2023-05-21T13:00:35.876Z,101093.13
2023-05-21T13:03:06.071Z,101088.44
2023-05-21T13:05:33.501Z,101096.13
2023-05-21T13:08:00.516Z,101091.88
2023-05-21T13:10:27.477Z,101082.81
2023-05-21T13:12:54.886Z,101086.53
2023-05-21T13:15:21.967Z,101085.06
2023-05-21T13:17:50.648Z,101072.75
2023-05-21T13:20:21.676Z,101096.81
2023-05-21T13:22:51.801Z,101082.34
2023-05-21T13:25:24.896Z,101061.91
2023-05-21T13:27:53.323Z,101078.56
2023-05-21T13:30:21.492Z,101072.63
2023-05-21T13:32:48.974Z,101076.25
2023-05-21T13:35:16.597Z,101062.31
2023-05-21T13:37:44.061Z,101080.63
2023-05-21T13:40:16.327Z,101076.03
2023-05-21T13:42:45.531Z,101081.13
2023-05-21T13:45:15.145Z,101079.50
2023-05-21T13:47:43.841Z,101081.78
2023-05-21T13:50:11.609Z,101063.81
2023-05-21T13:52:39.251Z,101050.13
2023-05-21T13:55:06.972Z,101071.97
2023-05-21T13:57:34.136Z,101068.28
2023-05-21T14:00:01.503Z,101060.59
2023-05-21T14:02:29.012Z,101053.22
2023-05-21T14:04:56.169Z,101059.44
2023-05-21T14:07:23.168Z,101065.88
2023-05-21T14:09:50.364Z,101060.19
2023-05-21T14:12:17.599Z,101056.63
2023-05-21T14:14:44.717Z,101057.09
2023-05-21T14:17:11.809Z,101055.59
2023-05-21T14:19:38.746Z,101056.63
2023-05-21T14:22:05.856Z,101038.97
2023-05-21T14:24:32.824Z,101055.31
2023-05-21T14:26:59.773Z,101055.50
2023-05-21T14:29:26.735Z,101054.63
2023-05-21T14:31:53.904Z,101049.75
2023-05-21T14:34:20.881Z,101044.66
2023-05-21T14:36:47.884Z,101055.22
2023-05-21T14:39:14.970Z,101045.25
2023-05-21T14:41:41.919Z,101028.44
2023-05-21T14:44:08.916Z,101047.75
2023-05-21T14:46:36.862Z,101041.84
2023-05-21T14:49:04.120Z,101044.81
2023-05-21T14:51:31.641Z,101042.47
2023-05-21T14:53:58.958Z,101018.69
2023-05-21T14:56:27.618Z,101032.13
2023-05-21T14:58:55.031Z,101020.38
2023-05-21T15:01:22.189Z,101039.03
2023-05-21T15:03:49.647Z,101015.00
2023-05-21T15:06:16.939Z,101012.84
2023-05-21T15:08:43.974Z,101035.84
2023-05-21T15:11:11.531Z,100999.00
2023-05-21T15:13:39.608Z,100990.84
2023-05-21T15:16:06.941Z,101016.03
2023-05-21T15:18:34.145Z,101027.00
2023-05-21T15:21:01.577Z,101004.91
2023-05-21T15:23:28.753Z,101023.16
2023-05-21T15:25:55.927Z,101020.03
2023-05-21T15:28:23.069Z,101002.66
2023-05-21T15:30:50.339Z,101019.97
2023-05-21T15:33:17.533Z,101012.75
2023-05-21T15:35:44.740Z,101016.59
2023-05-21T15:38:12.288Z,101008.31
2023-05-21T15:40:42.696Z,101000.22
2023-05-21T15:43:09.698Z,101001.09
2023-05-21T15:45:38.326Z,100998.34
2023-05-21T15:48:06.154Z,100990.88
2023-05-21T15:50:35.355Z,100992.97
2023-05-21T15:53:06.035Z,100999.34
2023-05-21T15:55:33.916Z,100987.84
2023-05-21T15:58:02.548Z,100987.25
2023-05-21T16:00:29.774Z,100982.97
2023-05-21T16:02:56.811Z,100984.25
2023-05-21T16:05:23.820Z,100979.56
2023-05-21T16:07:50.854Z,100975.44
2023-05-21T16:10:17.822Z,100982.34
2023-05-21T16:12:44.811Z,100983.09
2023-05-21T16:15:11.951Z,100988.44
2023-05-21T16:17:38.899Z,100988.63
2023-05-21T16:20:07.217Z,100982.84
2023-05-21T16:22:34.148Z,100984.56
2023-05-21T16:25:01.113Z,100987.31
2023-05-21T16:27:28.096Z,100977.09
2023-05-21T16:29:55.065Z,100962.22
2023-05-21T16:32:22.385Z,100985.16
2023-05-21T16:34:49.599Z,100978.56
2023-05-21T16:37:16.513Z,100977.50
2023-05-21T16:39:43.903Z,100980.31
2023-05-21T16:42:10.888Z,100966.13
2023-05-21T16:44:38.364Z,100978.69
2023-05-21T16:47:05.483Z,100969.09
2023-05-21T16:49:32.522Z,100971.44
2023-05-21T16:51:59.536Z,100978.47
2023-05-21T16:54:27.372Z,100983.09
2023-05-21T16:56:54.987Z,100984.81
2023-05-21T16:59:21.955Z,100959.50
2023-05-21T17:01:48.949Z,100961.63
2023-05-21T17:04:16.066Z,100976.09
2023-05-21T17:06:43.022Z,100961.63
2023-05-21T17:09:09.925Z,100968.88
2023-05-21T17:11:36.896Z,100977.41
2023-05-21T17:14:03.909Z,100962.31
2023-05-21T17:16:31.120Z,100980.59
2023-05-21T17:18:58.229Z,100987.63
2023-05-21T17:21:26.692Z,100955.38
2023-05-21T17:23:53.628Z,100971.38
2023-05-21T17:26:23.129Z,100983.06
2023-05-21T17:28:50.075Z,100975.66
2023-05-21T17:31:17.068Z,100969.50
2023-05-21T17:33:44.151Z,100980.97
2023-05-21T17:36:11.070Z,100979.28
2023-05-21T17:38:38.104Z,100983.75
2023-05-21T17:41:05.368Z,100974.19
2023-05-21T17:43:32.365Z,100973.13
2023-05-21T17:45:59.523Z,100969.09
2023-05-21T17:48:26.643Z,100977.38
2023-05-21T17:50:53.709Z,100969.91
2023-05-21T17:53:20.681Z,100973.50
2023-05-21T17:55:47.645Z,100975.19
2023-05-21T17:58:14.738Z,100962.63
2023-05-21T18:00:41.800Z,100969.44
2023-05-21T18:03:08.843Z,100964.13
2023-05-21T18:05:36.541Z,100969.38
2023-05-21T18:08:04.101Z,100959.81
2023-05-21T18:10:31.058Z,100970.38
2023-05-21T18:12:57.988Z,100970.97
2023-05-21T18:15:24.981Z,100970.59
2023-05-21T18:17:51.961Z,100972.69
2023-05-21T18:20:19.015Z,100967.78
2023-05-21T18:22:46.013Z,100961.41
2023-05-21T18:25:12.969Z,100968.00
2023-05-21T18:27:39.934Z,100974.34
2023-05-21T18:30:08.438Z,100968.34
2023-05-21T18:32:38.588Z,100965.78
2023-05-21T18:35:11.173Z,100963.19
2023-05-21T18:37:41.634Z,100964.00
2023-05-21T18:40:09.356Z,100979.72
2023-05-21T18:42:37.160Z,100970.41
2023-05-21T18:45:09.045Z,100972.50
2023-05-21T18:47:36.547Z,100957.63
2023-05-21T18:50:03.650Z,100976.47
2023-05-21T18:52:30.623Z,100971.56
2023-05-21T18:54:57.587Z,100962.59
2023-05-21T18:57:24.595Z,100959.78
2023-05-21T18:59:51.596Z,100979.78
2023-05-21T19:02:19.734Z,100982.94
2023-05-21T19:04:46.769Z,100970.63
2023-05-21T19:07:15.772Z,100982.03
2023-05-21T19:09:42.823Z,100963.72
2023-05-21T19:12:09.942Z,100980.72
2023-05-21T19:14:36.874Z,100982.75
2023-05-21T19:17:03.871Z,100982.28
2023-05-21T19:19:30.945Z,100983.94
2023-05-21T19:21:58.369Z,100978.19
2023-05-21T19:24:25.322Z,100986.44
2023-05-21T19:26:52.253Z,100982.78
2023-05-21T19:29:19.224Z,100987.84
2023-05-21T19:31:46.424Z,100995.00
2023-05-21T19:34:13.379Z,100994.06
2023-05-21T19:36:52.241Z,100997.19
2023-05-21T19:39:20.339Z,100998.66
2023-05-21T19:41:47.289Z,100997.53
2023-05-21T19:44:14.311Z,100998.78
2023-05-21T19:46:41.296Z,100995.69
2023-05-21T19:49:10.441Z,101000.41
2023-05-21T19:51:37.403Z,101004.59
2023-05-21T19:54:04.488Z,101009.47
2023-05-21T19:56:31.472Z,101006.03
2023-05-21T19:58:58.467Z,101006.41
2023-05-21T20:01:25.869Z,101007.00
2023-05-21T20:03:52.915Z,101007.41
2023-05-21T20:06:20.708Z,101010.53
2023-05-21T20:08:48.055Z,101006.28
2023-05-21T20:11:15.260Z,101008.56
2023-05-21T20:13:42.426Z,101009.16
2023-05-21T20:16:10.508Z,101012.94
2023-05-21T20:18:37.569Z,100984.44
2023-05-21T20:21:06.377Z,101011.34
2023-05-21T20:23:33.372Z,101013.97
2023-05-21T20:26:00.362Z,100998.00
2023-05-21T20:28:27.309Z,101005.00
2023-05-21T20:30:59.676Z,101020.16
2023-05-21T20:33:30.008Z,101003.78
2023-05-21T20:35:56.999Z,101001.31
2023-05-21T20:38:27.343Z,101016.41
2023-05-21T20:40:55.521Z,101011.28
2023-05-21T20:43:24.440Z,101016.88
2023-05-21T20:46:02.253Z,101018.28
2023-05-21T20:48:29.859Z,100999.53
2023-05-21T20:51:00.003Z,101017.53
2023-05-21T20:53:27.315Z,101005.41
2023-05-21T20:55:54.659Z,100990.06
2023-05-21T20:58:25.439Z,101005.13
2023-05-21T21:00:52.693Z,101004.81
2023-05-21T21:03:21.539Z,100985.59
2023-05-21T21:05:48.853Z,101003.00
2023-05-21T21:08:16.161Z,100996.72
2023-05-21T21:10:46.685Z,101008.59
2023-05-21T21:13:14.406Z,101001.59
2023-05-21T21:15:42.592Z,100985.28
2023-05-21T21:18:12.382Z,100984.59
2023-05-21T21:20:41.332Z,100995.19
2023-05-21T21:23:08.626Z,101000.50
2023-05-21T21:25:35.826Z,100975.31
2023-05-21T21:28:02.783Z,100987.97
2023-05-21T21:30:29.732Z,100993.63
2023-05-21T21:32:56.680Z,100994.88
2023-05-21T21:35:23.799Z,100987.66
2023-05-21T21:37:50.896Z,100979.16
2023-05-21T21:40:18.036Z,100969.00
2023-05-21T21:42:44.968Z,100972.78
2023-05-21T21:45:12.000Z,100977.03
2023-05-21T21:47:39.002Z,100984.03
2023-05-21T21:50:07.549Z,100987.53
2023-05-21T21:52:34.604Z,100982.41
2023-05-21T21:55:01.568Z,100988.03
2023-05-21T21:57:29.917Z,100990.97
2023-05-21T21:59:56.906Z,100986.41
2023-05-21T22:02:23.899Z,100983.31
2023-05-21T22:04:50.957Z,100973.13
2023-05-21T22:07:18.115Z,100994.63
2023-05-21T22:09:45.787Z,100992.97
2023-05-21T22:12:13.522Z,100996.03
2023-05-21T22:14:40.462Z,100949.41
2023-05-21T22:17:08.610Z,100991.94
2023-05-21T22:19:35.894Z,100981.41
2023-05-21T22:22:04.186Z,100982.94
2023-05-21T22:24:33.218Z,100981.97
2023-05-21T22:27:00.524Z,100978.91
2023-05-21T22:29:27.540Z,100980.91
2023-05-21T22:31:54.590Z,100984.38
2023-05-21T22:34:22.933Z,100982.66
2023-05-21T22:36:49.978Z,100982.31
2023-05-21T22:39:17.940Z,100950.56
2023-05-21T22:41:45.600Z,100985.91
2023-05-21T22:44:12.589Z,100967.16
2023-05-21T22:46:42.078Z,100986.09
2023-05-21T22:49:10.244Z,100971.75
2023-05-21T22:51:37.557Z,100979.81
2023-05-21T22:54:04.992Z,100980.38
2023-05-21T22:56:31.930Z,100934.25
2023-05-21T22:58:59.567Z,100973.16
2023-05-21T23:01:26.655Z,100973.53
2023-05-21T23:03:53.697Z,100972.31
2023-05-21T23:06:20.903Z,100942.94
2023-05-21T23:08:47.851Z,100965.16
2023-05-21T23:11:14.968Z,100961.28
2023-05-21T23:13:41.925Z,100943.84
2023-05-21T23:16:08.919Z,100942.16
2023-05-21T23:18:36.006Z,100956.34
2023-05-21T23:21:03.156Z,100959.25
2023-05-21T23:23:30.491Z,100962.84
2023-05-21T23:25:58.825Z,100960.97
2023-05-21T23:28:26.412Z,100960.47
2023-05-21T23:30:53.374Z,100958.59
2023-05-21T23:33:20.374Z,100948.53
2023-05-21T23:35:47.279Z,100955.47
2023-05-21T23:38:14.297Z,100964.72
2023-05-21T23:40:41.936Z,100961.34
2023-05-21T23:43:08.883Z,100956.06
2023-05-21T23:45:35.956Z,100966.72
2023-05-21T23:48:03.040Z,100951.34
2023-05-21T23:50:30.038Z,100964.81
2023-05-21T23:52:57.018Z,100964.47
2023-05-21T23:55:24.076Z,100962.56
2023-05-21T23:57:51.035Z,100958.16
